San Carmen — WSD2145 — position and weather

sailwx.info

Track history (hours):
 
Tides and Currents Weather Stations Pressure Air Temp Water Temp Dewpoint Dewpoint Depression Visibility Wind Speed Wind Dir Waves Ship Positions

San Carmen

Owner: BUFFALO MARINE SERVICE INC, HOUSTON, TX. More information available from US FCC via Universal Licensing System and Coast Guard Vessel Documentation Center.

Last reported at 2017-Nov-23 03:30 UTC. Time now 2017-Nov-23 03:52 UTC.
Position N 29°43' W 095°17'.

Length 20 m; draft 2.1 m.

Type: Tug. MMSI: 366941810.

Date/timePositionNaut miles runAvg speedWind from/ knotsBaromVisibWave heightAir tempDewpointWater temp
2017-Nov-23 03:30N 29°43' W 095°17'0 0.0
2017-Nov-23 03:00N 29°43' W 095°17'0 0.0
2017-Nov-23 02:30N 29°43' W 095°17'0 0.0
2017-Nov-23 02:00N 29°43' W 095°17'0 0.0
2017-Nov-23 01:30N 29°43' W 095°17'0 0.0
2017-Nov-23 01:00N 29°43' W 095°17'0 0.0
2017-Nov-23 00:30N 29°43' W 095°17'0 0.0
2017-Nov-23 00:00N 29°43' W 095°17'0 0.0
2017-Nov-22 23:30N 29°43' W 095°17'0 0.0
2017-Nov-22 23:00N 29°43' W 095°17'0 0.0
2017-Nov-22 22:30N 29°43' W 095°17'0 0.0
2017-Nov-22 22:00N 29°43' W 095°17'0 0.0
2017-Nov-22 21:30N 29°43' W 095°17'0 0.0
2017-Nov-22 21:00N 29°43' W 095°17'0 0.0
2017-Nov-22 20:30N 29°43' W 095°17'0 0.0
2017-Nov-22 20:00N 29°43' W 095°17'0 0.0
2017-Nov-22 19:30N 29°43' W 095°17'  
2017-Nov-19 20:27N 29°44' W 095°09'3 0.1
2017-Nov-18 06:22N 29°46' W 095°05'3 5.7
2017-Nov-18 05:53N 29°44' W 095°08'1 0.1
2017-Nov-17 17:06N 29°44' W 095°09'4 0.5
2017-Nov-17 08:00N 29°45' W 095°04'1 1.7
2017-Nov-17 07:30N 29°44' W 095°03'0 0.0
2017-Nov-17 07:00N 29°44' W 095°03'0 0.0
2017-Nov-16 23:52N 29°44' W 095°03'0 0.7
2017-Nov-16 23:13N 29°44' W 095°03'2 5.7
2017-Nov-16 22:50N 29°46' W 095°05'2 6.5
2017-Nov-16 22:30N 29°44' W 095°07'3 6.1
2017-Nov-16 21:58N 29°45' W 095°11'3 5.7
2017-Nov-16 21:26N 29°44' W 095°14'3 5.6
2017-Nov-16 21:00N 29°44' W 095°17'1 2.3
2017-Nov-16 20:27N 29°45' W 095°17'0 0.0
2017-Nov-16 20:00N 29°45' W 095°17'0 0.0
2017-Nov-16 19:30N 29°45' W 095°17'0 0.0
2017-Nov-16 18:59N 29°45' W 095°17'0 0.0
2017-Nov-16 18:30N 29°45' W 095°17'0 0.1
2017-Nov-16 18:00N 29°45' W 095°17'0 0.0
2017-Nov-16 17:30N 29°45' W 095°17'0 0.0
2017-Nov-16 17:00N 29°45' W 095°17'0 0.0
2017-Nov-16 16:30N 29°45' W 095°17'0 0.0
2017-Nov-16 15:59N 29°45' W 095°17'0 0.0
2017-Nov-16 15:30N 29°45' W 095°17'0 0.0
2017-Nov-16 15:00N 29°45' W 095°17'0 0.0
2017-Nov-16 14:30N 29°45' W 095°17'0 0.0
2017-Nov-16 14:00N 29°45' W 095°17'0 0.3
2017-Nov-16 13:30N 29°45' W 095°17'2 3.2
2017-Nov-16 13:00N 29°43' W 095°16'0 0.0
2017-Nov-16 12:29N 29°43' W 095°16'0 0.0
2017-Nov-16 12:00N 29°43' W 095°16'0 0.0
2017-Nov-16 11:30N 29°43' W 095°16'0 0.0
2017-Nov-16 11:00N 29°43' W 095°16'0 0.0
2017-Nov-16 10:30N 29°43' W 095°16'0 0.0
2017-Nov-16 10:00N 29°43' W 095°16'0 0.0
2017-Nov-16 09:24N 29°43' W 095°16'0 0.0
2017-Nov-16 09:00N 29°43' W 095°16'0 0.0
2017-Nov-16 08:30N 29°43' W 095°16'0 0.0
2017-Nov-16 08:00N 29°43' W 095°16'1 2.5
2017-Nov-16 07:26N 29°43' W 095°15'0 0.1
2017-Nov-16 07:00N 29°43' W 095°15'0 0.0
2017-Nov-16 06:30N 29°43' W 095°15'0 0.0
2017-Nov-16 06:00N 29°43' W 095°15'0 0.0
2017-Nov-16 05:30N 29°43' W 095°15'0 0.0
2017-Nov-16 05:00N 29°43' W 095°15'0 0.0
2017-Nov-16 04:30N 29°43' W 095°15'0 0.0
2017-Nov-16 04:00N 29°43' W 095°15'0 0.0
2017-Nov-16 03:30N 29°43' W 095°15'0 0.0
2017-Nov-16 03:00N 29°43' W 095°15'0 0.0
2017-Nov-16 02:30N 29°43' W 095°15'0 0.0
2017-Nov-16 02:00N 29°43' W 095°15'0 0.0
2017-Nov-16 01:30N 29°43' W 095°15'1 2.9
2017-Nov-16 01:00N 29°43' W 095°16'0 0.0
2017-Nov-15 21:36N 29°43' W 095°16'1 6.0
2017-Nov-15 21:28N 29°44' W 095°16'3 6.0
2017-Nov-15 20:57N 29°44' W 095°12'3 5.1
2017-Nov-15 20:23N 29°44' W 095°09'5 0.5
2017-Nov-15 09:54N 29°44' W 095°03'0 0.1
2017-Nov-15 09:13N 29°44' W 095°03'0 0.0
2017-Nov-15 08:56N 29°44' W 095°03'0 0.0
2017-Nov-15 08:19N 29°44' W 095°03'0 0.0
2017-Nov-15 07:59N 29°44' W 095°03'0 0.0
2017-Nov-15 07:30N 29°44' W 095°03'0 0.0
2017-Nov-15 06:51N 29°44' W 095°03'0 0.0
2017-Nov-15 06:25N 29°44' W 095°03'0 0.0
2017-Nov-15 05:55N 29°44' W 095°03'0 0.0
2017-Nov-15 05:25N 29°44' W 095°03'0 0.0
2017-Nov-15 04:59N 29°44' W 095°03'0 0.0
2017-Nov-15 04:23N 29°44' W 095°03'0 0.1
2017-Nov-15 03:59N 29°44' W 095°03'0 0.1
2017-Nov-15 03:30N 29°44' W 095°03'0 0.0
2017-Nov-15 02:35N 29°44' W 095°03'0 0.8
2017-Nov-15 02:30N 29°44' W 095°03'4 0.4
2017-Nov-14 17:48N 29°46' W 095°06'1 2.6
2017-Nov-14 17:25N 29°45' W 095°06'1 0.1
2017-Nov-14 12:12N 29°45' W 095°06'1 3.7
2017-Nov-14 12:00N 29°45' W 095°06'1 1.4
2017-Nov-14 11:17N 29°46' W 095°06'2 4.5
2017-Nov-14 10:51N 29°44' W 095°07'2 7.1
2017-Nov-14 10:30N 29°44' W 095°09'3 6.1
2017-Nov-14 09:59N 29°43' W 095°13'3 6.2
2017-Nov-14 09:30N 29°43' W 095°16'0 0.3
2017-Nov-14 09:00N 29°43' W 095°17'0 0.0
2017-Nov-14 08:26N 29°43' W 095°17'0 0.0
2017-Nov-14 08:00N 29°43' W 095°17'0 0.0
2017-Nov-14 07:30N 29°43' W 095°17'0 0.0
2017-Nov-14 07:00N 29°43' W 095°17'0 0.0
2017-Nov-14 06:30N 29°43' W 095°17'0 0.0
2017-Nov-14 05:05N 29°43' W 095°17'0 0.0
2017-Nov-14 04:54N 29°43' W 095°17'0 0.0
2017-Nov-14 04:30N 29°43' W 095°17'0 0.0
2017-Nov-14 04:00N 29°43' W 095°17'0 0.4
2017-Nov-14 03:30N 29°43' W 095°16'3 4.8
2017-Nov-14 02:55N 29°44' W 095°13'0 0.0
2017-Nov-14 02:30N 29°44' W 095°13'0 0.0
2017-Nov-14 02:00N 29°44' W 095°13'0 0.0
2017-Nov-14 01:28N 29°44' W 095°13'0 0.0
2017-Nov-14 00:58N 29°44' W 095°13'0 0.0
2017-Nov-14 00:30N 29°44' W 095°13'0 0.0
2017-Nov-13 23:56N 29°44' W 095°13'0 0.0
2017-Nov-13 23:30N 29°44' W 095°13'0 0.0
2017-Nov-13 22:57N 29°44' W 095°13'0 0.0
2017-Nov-13 22:25N 29°44' W 095°13'  
Track history (hours):
 
Tides and Currents Weather Stations Pressure Air Temp Water Temp Dewpoint Dewpoint Depression Visibility Wind Speed Wind Dir Waves Ship Positions

San Carmen

Owner: BUFFALO MARINE SERVICE INC, HOUSTON, TX. More information available from US FCC via Universal Licensing System and Coast Guard Vessel Documentation Center.

Last reported at 2017-Nov-23 03:30 UTC. Time now 2017-Nov-23 03:52 UTC.
Position N 29°43' W 095°17'.

Length 20 m; draft 2.1 m.

Type: Tug. MMSI: 366941810.

Date/timePositionNaut miles runAvg speedWind from/ knotsBaromVisibWave heightAir tempDewpointWater temp
2017-Nov-23 03:30N 29°43' W 095°17'0 0.0
2017-Nov-23 03:00N 29°43' W 095°17'0 0.0
2017-Nov-23 02:30N 29°43' W 095°17'0 0.0
2017-Nov-23 02:00N 29°43' W 095°17'0 0.0
2017-Nov-23 01:30N 29°43' W 095°17'0 0.0
2017-Nov-23 01:00N 29°43' W 095°17'0 0.0
2017-Nov-23 00:30N 29°43' W 095°17'0 0.0
2017-Nov-23 00:00N 29°43' W 095°17'0 0.0
2017-Nov-22 23:30N 29°43' W 095°17'0 0.0
2017-Nov-22 23:00N 29°43' W 095°17'0 0.0
2017-Nov-22 22:30N 29°43' W 095°17'0 0.0
2017-Nov-22 22:00N 29°43' W 095°17'0 0.0
2017-Nov-22 21:30N 29°43' W 095°17'0 0.0
2017-Nov-22 21:00N 29°43' W 095°17'0 0.0
2017-Nov-22 20:30N 29°43' W 095°17'0 0.0
2017-Nov-22 20:00N 29°43' W 095°17'0 0.0
2017-Nov-22 19:30N 29°43' W 095°17'  
2017-Nov-19 20:27N 29°44' W 095°09'3 0.1
2017-Nov-18 06:22N 29°46' W 095°05'3 5.7
2017-Nov-18 05:53N 29°44' W 095°08'1 0.1
2017-Nov-17 17:06N 29°44' W 095°09'4 0.5
2017-Nov-17 08:00N 29°45' W 095°04'1 1.7
2017-Nov-17 07:30N 29°44' W 095°03'0 0.0
2017-Nov-17 07:00N 29°44' W 095°03'0 0.0
2017-Nov-16 23:52N 29°44' W 095°03'0 0.7
2017-Nov-16 23:13N 29°44' W 095°03'2 5.7
2017-Nov-16 22:50N 29°46' W 095°05'2 6.5
2017-Nov-16 22:30N 29°44' W 095°07'3 6.1
2017-Nov-16 21:58N 29°45' W 095°11'3 5.7
2017-Nov-16 21:26N 29°44' W 095°14'3 5.6
2017-Nov-16 21:00N 29°44' W 095°17'1 2.3
2017-Nov-16 20:27N 29°45' W 095°17'0 0.0
2017-Nov-16 20:00N 29°45' W 095°17'0 0.0
2017-Nov-16 19:30N 29°45' W 095°17'0 0.0
2017-Nov-16 18:59N 29°45' W 095°17'0 0.0
2017-Nov-16 18:30N 29°45' W 095°17'0 0.1
2017-Nov-16 18:00N 29°45' W 095°17'0 0.0
2017-Nov-16 17:30N 29°45' W 095°17'0 0.0
2017-Nov-16 17:00N 29°45' W 095°17'0 0.0
2017-Nov-16 16:30N 29°45' W 095°17'0 0.0
2017-Nov-16 15:59N 29°45' W 095°17'0 0.0
2017-Nov-16 15:30N 29°45' W 095°17'0 0.0
2017-Nov-16 15:00N 29°45' W 095°17'0 0.0
2017-Nov-16 14:30N 29°45' W 095°17'0 0.0
2017-Nov-16 14:00N 29°45' W 095°17'0 0.3
2017-Nov-16 13:30N 29°45' W 095°17'2 3.2
2017-Nov-16 13:00N 29°43' W 095°16'0 0.0
2017-Nov-16 12:29N 29°43' W 095°16'0 0.0
2017-Nov-16 12:00N 29°43' W 095°16'0 0.0
2017-Nov-16 11:30N 29°43' W 095°16'0 0.0
2017-Nov-16 11:00N 29°43' W 095°16'0 0.0
2017-Nov-16 10:30N 29°43' W 095°16'0 0.0
2017-Nov-16 10:00N 29°43' W 095°16'0 0.0
2017-Nov-16 09:24N 29°43' W 095°16'0 0.0
2017-Nov-16 09:00N 29°43' W 095°16'0 0.0
2017-Nov-16 08:30N 29°43' W 095°16'0 0.0
2017-Nov-16 08:00N 29°43' W 095°16'1 2.5
2017-Nov-16 07:26N 29°43' W 095°15'0 0.1
2017-Nov-16 07:00N 29°43' W 095°15'0 0.0
2017-Nov-16 06:30N 29°43' W 095°15'0 0.0
2017-Nov-16 06:00N 29°43' W 095°15'0 0.0
2017-Nov-16 05:30N 29°43' W 095°15'0 0.0
2017-Nov-16 05:00N 29°43' W 095°15'0 0.0
2017-Nov-16 04:30N 29°43' W 095°15'0 0.0
2017-Nov-16 04:00N 29°43' W 095°15'0 0.0
2017-Nov-16 03:30N 29°43' W 095°15'0 0.0
2017-Nov-16 03:00N 29°43' W 095°15'0 0.0
2017-Nov-16 02:30N 29°43' W 095°15'0 0.0
2017-Nov-16 02:00N 29°43' W 095°15'0 0.0
2017-Nov-16 01:30N 29°43' W 095°15'1 2.9
2017-Nov-16 01:00N 29°43' W 095°16'0 0.0
2017-Nov-15 21:36N 29°43' W 095°16'1 6.0
2017-Nov-15 21:28N 29°44' W 095°16'3 6.0
2017-Nov-15 20:57N 29°44' W 095°12'3 5.1
2017-Nov-15 20:23N 29°44' W 095°09'5 0.5
2017-Nov-15 09:54N 29°44' W 095°03'0 0.1
2017-Nov-15 09:13N 29°44' W 095°03'0 0.0
2017-Nov-15 08:56N 29°44' W 095°03'0 0.0
2017-Nov-15 08:19N 29°44' W 095°03'0 0.0
2017-Nov-15 07:59N 29°44' W 095°03'0 0.0
2017-Nov-15 07:30N 29°44' W 095°03'0 0.0
2017-Nov-15 06:51N 29°44' W 095°03'0 0.0
2017-Nov-15 06:25N 29°44' W 095°03'0 0.0
2017-Nov-15 05:55N 29°44' W 095°03'0 0.0
2017-Nov-15 05:25N 29°44' W 095°03'0 0.0
2017-Nov-15 04:59N 29°44' W 095°03'0 0.0
2017-Nov-15 04:23N 29°44' W 095°03'0 0.1
2017-Nov-15 03:59N 29°44' W 095°03'0 0.1
2017-Nov-15 03:30N 29°44' W 095°03'0 0.0
2017-Nov-15 02:35N 29°44' W 095°03'0 0.8
2017-Nov-15 02:30N 29°44' W 095°03'4 0.4
2017-Nov-14 17:48N 29°46' W 095°06'1 2.6
2017-Nov-14 17:25N 29°45' W 095°06'1 0.1
2017-Nov-14 12:12N 29°45' W 095°06'1 3.7
2017-Nov-14 12:00N 29°45' W 095°06'1 1.4
2017-Nov-14 11:17N 29°46' W 095°06'2 4.5
2017-Nov-14 10:51N 29°44' W 095°07'2 7.1
2017-Nov-14 10:30N 29°44' W 095°09'3 6.1
2017-Nov-14 09:59N 29°43' W 095°13'3 6.2
2017-Nov-14 09:30N 29°43' W 095°16'0 0.3
2017-Nov-14 09:00N 29°43' W 095°17'0 0.0
2017-Nov-14 08:26N 29°43' W 095°17'0 0.0
2017-Nov-14 08:00N 29°43' W 095°17'0 0.0
2017-Nov-14 07:30N 29°43' W 095°17'0 0.0
2017-Nov-14 07:00N 29°43' W 095°17'0 0.0
2017-Nov-14 06:30N 29°43' W 095°17'0 0.0
2017-Nov-14 05:05N 29°43' W 095°17'0 0.0
2017-Nov-14 04:54N 29°43' W 095°17'0 0.0
2017-Nov-14 04:30N 29°43' W 095°17'0 0.0
2017-Nov-14 04:00N 29°43' W 095°17'0 0.4
2017-Nov-14 03:30N 29°43' W 095°16'3 4.8
2017-Nov-14 02:55N 29°44' W 095°13'0 0.0
2017-Nov-14 02:30N 29°44' W 095°13'0 0.0
2017-Nov-14 02:00N 29°44' W 095°13'0 0.0
2017-Nov-14 01:28N 29°44' W 095°13'0 0.0
2017-Nov-14 00:58N 29°44' W 095°13'0 0.0
2017-Nov-14 00:30N 29°44' W 095°13'0 0.0
2017-Nov-13 23:56N 29°44' W 095°13'0 0.0
2017-Nov-13 23:30N 29°44' W 095°13'0 0.0
2017-Nov-13 22:57N 29°44' W 095°13'0 0.0
2017-Nov-13 22:25N 29°44' W 095°13'  

Dump ship's entire track history